createdAt,value
2024-02-04T00:00:44.271Z,15.35
2024-02-04T00:03:12.104Z,18.20
2024-02-04T00:05:39.434Z,14.75
2024-02-04T00:08:06.737Z,20.13
2024-02-04T00:10:34.114Z,21.27
2024-02-04T00:13:01.328Z,28.23
2024-02-04T00:15:28.669Z,22.27
2024-02-04T00:17:56.372Z,31.83
2024-02-04T00:20:25.548Z,27.23
2024-02-04T00:22:52.652Z,22.17
2024-02-04T00:25:21.396Z,26.08
2024-02-04T00:27:48.611Z,26.23
2024-02-04T00:30:16.069Z,23.38
2024-02-04T00:32:43.420Z,29.02
2024-02-04T00:35:10.583Z,22.25
2024-02-04T00:37:37.685Z,17.70
2024-02-04T00:40:05.678Z,14.80
2024-02-04T00:42:32.886Z,13.63
2024-02-04T00:45:00.039Z,19.08
2024-02-04T00:47:27.410Z,20.08
2024-02-04T00:49:55.509Z,17.73
2024-02-04T00:52:22.916Z,15.05
2024-02-04T00:54:50.138Z,17.80
2024-02-04T00:57:17.372Z,12.82
2024-02-04T00:59:44.473Z,14.90
2024-02-04T01:02:12.050Z,12.23
2024-02-04T01:04:39.642Z,13.27
2024-02-04T01:07:06.929Z,11.00
2024-02-04T01:09:34.334Z,20.10
2024-02-04T01:12:01.509Z,11.63
2024-02-04T01:14:28.743Z,11.57
2024-02-04T01:16:56.013Z,14.43
2024-02-04T01:19:23.147Z,14.27
2024-02-04T01:21:50.329Z,17.65
2024-02-04T01:24:17.618Z,14.82
2024-02-04T01:26:44.959Z,20.15
2024-02-04T01:29:12.023Z,18.40
2024-02-04T01:31:39.278Z,9.73
2024-02-04T01:34:06.507Z,9.07
2024-02-04T01:36:33.970Z,10.77
2024-02-04T01:39:01.240Z,11.40
2024-02-04T01:41:29.186Z,12.73
2024-02-04T01:43:56.404Z,7.40
2024-02-04T01:46:24.388Z,6.70
2024-02-04T01:48:51.633Z,8.20
2024-02-04T01:51:19.193Z,11.90
2024-02-04T01:53:47.850Z,11.27
2024-02-04T01:56:15.123Z,8.40
2024-02-04T01:58:45.166Z,12.57
2024-02-04T02:01:13.236Z,6.78
2024-02-04T02:03:41.001Z,7.35
2024-02-04T02:06:08.381Z,9.18
2024-02-04T02:08:35.916Z,10.70
2024-02-04T02:11:14.829Z,8.15
2024-02-04T02:16:14.525Z,7.35
2024-02-04T02:21:41.588Z,5.63
2024-02-04T02:24:24.410Z,4.05
2024-02-04T02:26:52.434Z,13.18
2024-02-04T02:29:19.676Z,11.85
2024-02-04T02:31:49.379Z,8.10
2024-02-04T02:34:29.920Z,7.53
2024-02-04T02:37:23.360Z,8.45
2024-02-04T02:40:06.755Z,7.00
2024-02-04T02:42:34.733Z,11.95
2024-02-04T02:45:02.999Z,9.35
2024-02-04T02:47:31.120Z,11.30
2024-02-04T02:49:58.666Z,10.52
2024-02-04T02:52:25.913Z,8.95
2024-02-04T02:54:53.022Z,13.90
2024-02-04T02:57:20.292Z,20.15
2024-02-04T02:59:47.334Z,18.27
2024-02-04T03:02:15.134Z,8.60
2024-02-04T03:04:42.568Z,17.40
2024-02-04T03:07:09.761Z,10.70
2024-02-04T03:09:37.025Z,12.25
2024-02-04T03:12:04.433Z,9.35
2024-02-04T03:14:32.485Z,15.02
2024-02-04T03:16:59.810Z,14.57
2024-02-04T03:19:28.016Z,8.93
2024-02-04T03:21:55.189Z,7.45
2024-02-04T03:24:22.544Z,8.68
2024-02-04T03:26:49.894Z,9.63
2024-02-04T03:29:17.307Z,5.88
2024-02-04T03:31:44.457Z,7.50
2024-02-04T03:34:11.927Z,5.47
2024-02-04T03:36:42.477Z,9.60
2024-02-04T03:39:09.684Z,15.75
2024-02-04T03:41:37.011Z,8.60
2024-02-04T03:44:04.486Z,8.60
2024-02-04T03:46:31.687Z,11.13
2024-02-04T03:48:59.257Z,13.13
2024-02-04T03:51:26.420Z,12.77
2024-02-04T03:53:53.638Z,13.18
2024-02-04T03:56:21.232Z,5.03
2024-02-04T03:58:48.476Z,11.52
2024-02-04T04:01:15.836Z,5.53
2024-02-04T04:03:44.213Z,10.05
2024-02-04T04:06:12.494Z,6.38
2024-02-04T04:08:40.282Z,7.65
2024-02-04T04:11:10.365Z,7.47
2024-02-04T04:13:37.906Z,14.73
2024-02-04T04:16:06.310Z,9.95
2024-02-04T04:18:33.880Z,8.38
2024-02-04T04:21:01.096Z,8.25
2024-02-04T04:23:28.255Z,4.65
2024-02-04T04:25:55.588Z,9.30
2024-02-04T04:28:22.745Z,11.50
2024-02-04T04:30:49.860Z,5.30
2024-02-04T04:33:17.274Z,11.98
2024-02-04T04:35:44.477Z,8.45
2024-02-04T04:38:11.556Z,2.83
2024-02-04T04:40:38.776Z,9.80
2024-02-04T04:43:05.947Z,7.82
2024-02-04T04:45:33.316Z,7.85
2024-02-04T04:48:00.658Z,8.00
2024-02-04T04:50:28.769Z,9.27
2024-02-04T04:52:55.839Z,7.07
2024-02-04T04:55:23.056Z,8.48
2024-02-04T04:57:50.233Z,8.70
2024-02-04T05:00:17.827Z,6.15
2024-02-04T05:02:45.331Z,5.22
2024-02-04T05:05:13.528Z,9.00
2024-02-04T05:07:41.551Z,9.30
2024-02-04T05:10:09.467Z,4.82
2024-02-04T05:12:37.752Z,8.38
2024-02-04T05:15:06.577Z,9.40
2024-02-04T05:17:35.327Z,5.65
2024-02-04T05:20:04.574Z,10.95
2024-02-04T05:22:32.165Z,6.72
2024-02-04T05:25:00.156Z,8.02
2024-02-04T05:27:27.620Z,10.75
2024-02-04T05:29:54.949Z,11.07
2024-02-04T05:32:22.267Z,10.13
2024-02-04T05:34:49.934Z,6.38
2024-02-04T05:37:17.112Z,5.55
2024-02-04T05:39:44.468Z,8.55
2024-02-04T05:42:11.709Z,12.80
2024-02-04T05:44:38.852Z,3.97
2024-02-04T05:47:06.182Z,6.85
2024-02-04T05:49:33.498Z,8.27
2024-02-04T05:52:00.746Z,6.18
2024-02-04T05:54:28.155Z,4.35
2024-02-04T05:56:55.304Z,13.95
2024-02-04T05:59:22.389Z,5.20
2024-02-04T06:01:49.625Z,4.65
2024-02-04T06:04:16.896Z,8.98
2024-02-04T06:06:44.111Z,9.45
2024-02-04T06:09:11.829Z,7.43
2024-02-04T06:11:38.923Z,16.33
2024-02-04T06:14:06.040Z,9.52
2024-02-04T06:16:35.879Z,8.77
2024-02-04T06:19:03.040Z,10.07
2024-02-04T06:21:30.321Z,9.27
2024-02-04T06:23:57.671Z,8.65
2024-02-04T06:26:25.474Z,11.48
2024-02-04T06:28:52.900Z,17.00
2024-02-04T06:31:20.466Z,10.45
2024-02-04T06:33:47.614Z,10.93
2024-02-04T06:36:14.810Z,12.73
2024-02-04T06:38:42.235Z,16.65
2024-02-04T06:41:09.297Z,8.23
2024-02-04T06:43:39.009Z,12.10
2024-02-04T06:46:06.486Z,15.52
2024-02-04T06:48:33.645Z,12.00
2024-02-04T06:51:00.758Z,19.73
2024-02-04T06:53:27.878Z,16.27
2024-02-04T06:55:54.883Z,17.35
2024-02-04T06:58:21.923Z,16.58
2024-02-04T07:00:49.384Z,17.67
2024-02-04T07:03:16.630Z,22.13
2024-02-04T07:05:48.367Z,17.55
2024-02-04T07:08:16.054Z,24.00
2024-02-04T07:10:43.168Z,23.77
2024-02-04T07:13:12.960Z,31.95
2024-02-04T07:15:40.564Z,14.95
2024-02-04T07:18:08.258Z,13.75
2024-02-04T07:20:35.464Z,13.30
2024-02-04T07:23:02.608Z,14.18
2024-02-04T07:25:29.700Z,13.25
2024-02-04T07:27:57.936Z,14.82
2024-02-04T07:30:25.418Z,13.07
2024-02-04T07:32:52.582Z,10.27
2024-02-04T07:35:19.591Z,20.27
2024-02-04T07:37:46.826Z,19.90
2024-02-04T07:40:14.048Z,17.45
2024-02-04T07:42:41.203Z,14.15
2024-02-04T07:45:10.724Z,38.05
2024-02-04T07:47:38.217Z,22.02
2024-02-04T07:50:06.089Z,15.98
2024-02-04T07:52:33.387Z,15.80
2024-02-04T07:55:00.618Z,9.40
2024-02-04T07:57:27.624Z,10.27
2024-02-04T07:59:54.763Z,10.80
2024-02-04T08:02:21.751Z,9.88
2024-02-04T08:04:48.784Z,10.25
2024-02-04T08:07:16.072Z,9.95
2024-02-04T08:09:43.236Z,6.90
2024-02-04T08:12:11.055Z,5.38
2024-02-04T08:14:38.088Z,6.85
2024-02-04T08:17:05.185Z,9.00
2024-02-04T08:19:32.547Z,14.32
2024-02-04T08:22:02.106Z,12.75
2024-02-04T08:24:31.101Z,7.90
2024-02-04T08:26:58.184Z,12.38
2024-02-04T08:29:25.957Z,9.07
2024-02-04T08:31:54.163Z,11.82
2024-02-04T08:34:23.058Z,13.93
2024-02-04T08:36:50.212Z,12.68
2024-02-04T08:39:17.274Z,17.48
2024-02-04T08:41:44.276Z,16.38
2024-02-04T08:44:16.065Z,8.52
2024-02-04T08:46:49.576Z,14.40
2024-02-04T08:49:16.741Z,17.80
2024-02-04T08:51:43.858Z,15.45
2024-02-04T08:54:10.896Z,11.77
2024-02-04T08:56:38.098Z,12.90
2024-02-04T08:59:07.298Z,11.02
2024-02-04T09:01:34.440Z,20.45
2024-02-04T09:04:01.856Z,11.63
2024-02-04T09:06:28.966Z,10.73
2024-02-04T09:08:56.038Z,11.07
2024-02-04T09:11:23.154Z,10.70
2024-02-04T09:13:50.323Z,18.27
2024-02-04T09:16:17.606Z,11.15
2024-02-04T09:18:44.933Z,13.40
2024-02-04T09:21:12.137Z,8.07
2024-02-04T09:23:39.377Z,40.90
2024-02-04T09:26:06.656Z,92.82
2024-02-04T09:28:33.989Z,47.67
2024-02-04T09:31:01.357Z,52.67
2024-02-04T09:33:29.450Z,24.92
2024-02-04T09:35:56.789Z,16.15
2024-02-04T09:38:24.114Z,26.10
2024-02-04T09:40:51.476Z,17.38
2024-02-04T09:43:20.497Z,16.48
2024-02-04T09:45:47.979Z,14.50
2024-02-04T09:48:15.512Z,13.10
2024-02-04T09:50:42.756Z,12.25
2024-02-04T09:53:10.783Z,13.27
2024-02-04T09:55:40.286Z,8.55
2024-02-04T09:58:07.467Z,5.95
2024-02-04T10:00:35.086Z,8.88
2024-02-04T10:03:04.216Z,12.35
2024-02-04T10:05:31.407Z,10.23
2024-02-04T10:07:58.813Z,10.60
2024-02-04T10:10:26.251Z,12.48
2024-02-04T10:12:53.337Z,5.25
2024-02-04T10:15:20.336Z,10.57
2024-02-04T10:17:48.267Z,10.10
2024-02-04T10:20:19.664Z,30.75
2024-02-04T10:22:47.840Z,31.33
2024-02-04T10:25:16.361Z,26.50
2024-02-04T10:27:43.818Z,26.38
2024-02-04T10:30:11.741Z,25.45
2024-02-04T10:32:38.877Z,24.75
2024-02-04T10:35:06.295Z,17.33
2024-02-04T10:37:33.378Z,15.18
2024-02-04T10:40:00.609Z,28.58
2024-02-04T10:42:28.978Z,10.50
2024-02-04T10:44:56.783Z,14.48
2024-02-04T10:47:26.186Z,10.48
2024-02-04T10:49:54.802Z,17.48
2024-02-04T10:52:24.821Z,14.00
2024-02-04T10:54:52.967Z,12.35
2024-02-04T10:57:28.526Z,6.85
2024-02-04T10:59:55.944Z,13.32
2024-02-04T11:02:23.149Z,13.13
2024-02-04T11:04:53.593Z,6.45
2024-02-04T11:07:22.436Z,7.80
2024-02-04T11:09:51.349Z,7.82
2024-02-04T11:12:20.637Z,10.80
2024-02-04T11:14:51.342Z,26.15
2024-02-04T11:17:39.330Z,33.67
2024-02-04T11:20:37.523Z,42.33
2024-02-04T11:23:15.811Z,18.85
2024-02-04T11:25:49.423Z,26.70
2024-02-04T11:28:17.661Z,16.98
2024-02-04T11:30:45.435Z,21.88
2024-02-04T11:33:13.986Z,22.90
2024-02-04T11:35:41.313Z,24.10
2024-02-04T11:38:09.558Z,21.35
2024-02-04T11:40:38.504Z,24.40
2024-02-04T11:43:12.113Z,26.48
2024-02-04T11:45:41.215Z,16.92
2024-02-04T11:48:09.857Z,20.95
2024-02-04T11:50:38.330Z,32.10
2024-02-04T11:53:12.329Z,21.15
2024-02-04T11:55:45.221Z,19.58
2024-02-04T11:58:14.191Z,25.58
2024-02-04T12:00:45.942Z,19.98
2024-02-04T12:03:13.156Z,33.97
2024-02-04T12:05:40.484Z,29.40
2024-02-04T12:08:08.543Z,34.50
2024-02-04T12:10:39.290Z,21.15
2024-02-04T12:13:10.411Z,31.48
2024-02-04T12:15:38.640Z,29.48
2024-02-04T12:18:13.405Z,28.70
2024-02-04T12:20:40.744Z,27.25
2024-02-04T12:23:08.894Z,50.65
2024-02-04T12:25:37.884Z,28.25
2024-02-04T12:28:06.361Z,35.85
2024-02-04T12:30:34.284Z,32.55
2024-02-04T12:33:05.956Z,29.88
2024-02-04T12:35:33.384Z,19.30
2024-02-04T12:38:01.201Z,45.88
2024-02-04T12:40:32.581Z,27.98
2024-02-04T12:43:06.478Z,21.52
2024-02-04T12:45:35.013Z,18.73
2024-02-04T12:48:03.059Z,26.25
2024-02-04T12:50:30.390Z,24.90
2024-02-04T12:53:07.096Z,17.00
2024-02-04T12:55:36.154Z,11.15
2024-02-04T12:58:10.753Z,14.93
2024-02-04T13:00:38.614Z,16.75
2024-02-04T13:03:07.052Z,15.63
2024-02-04T13:05:35.438Z,21.25
2024-02-04T13:08:06.412Z,10.63
2024-02-04T13:10:37.284Z,18.52
2024-02-04T13:13:10.220Z,21.55
2024-02-04T13:15:41.669Z,17.35
2024-02-04T13:18:10.513Z,18.02
2024-02-04T13:20:37.708Z,14.65
2024-02-04T13:23:07.243Z,22.10
2024-02-04T13:25:35.151Z,23.83
2024-02-04T13:28:02.690Z,16.52
2024-02-04T13:30:29.943Z,19.85
2024-02-04T13:32:58.804Z,14.82
2024-02-04T13:35:26.128Z,20.77
2024-02-04T13:37:56.185Z,16.30
2024-02-04T13:40:24.729Z,18.80
2024-02-04T13:42:52.355Z,13.43
2024-02-04T13:45:19.687Z,12.65
2024-02-04T13:47:47.158Z,21.92
2024-02-04T13:50:14.485Z,12.50
2024-02-04T13:52:43.168Z,18.95
2024-02-04T13:55:10.564Z,14.45
2024-02-04T13:57:38.233Z,17.92
2024-02-04T14:00:07.648Z,14.00
2024-02-04T14:02:34.998Z,15.38
2024-02-04T14:05:02.724Z,14.52
2024-02-04T14:07:30.133Z,22.92
2024-02-04T14:09:57.504Z,18.25
2024-02-04T14:12:25.068Z,13.75
2024-02-04T14:14:52.591Z,21.38
2024-02-04T14:17:20.861Z,23.70
2024-02-04T14:19:50.760Z,15.25
2024-02-04T14:22:19.474Z,19.48
2024-02-04T14:24:48.254Z,12.70
2024-02-04T14:27:15.724Z,14.65
2024-02-04T14:29:43.056Z,17.60
2024-02-04T14:32:10.409Z,14.00
2024-02-04T14:34:37.839Z,12.88
2024-02-04T14:37:05.818Z,14.95
2024-02-04T14:39:33.233Z,15.77
2024-02-04T14:42:00.410Z,9.30
2024-02-04T14:44:27.525Z,15.32
2024-02-04T14:46:54.889Z,11.93
2024-02-04T14:49:22.366Z,13.52
2024-02-04T14:51:50.165Z,12.30
2024-02-04T14:54:18.381Z,11.77
2024-02-04T14:56:47.818Z,26.50
2024-02-04T14:59:21.854Z,33.67
2024-02-04T15:01:51.470Z,16.13
2024-02-04T15:04:19.574Z,16.90
2024-02-04T15:06:47.063Z,15.93
2024-02-04T15:09:16.393Z,9.23
2024-02-04T15:11:44.314Z,24.23
2024-02-04T15:14:11.758Z,13.60
2024-02-04T15:16:40.421Z,7.97
2024-02-04T15:19:08.738Z,31.80
2024-02-04T15:21:37.039Z,12.65
2024-02-04T15:24:07.731Z,20.85
2024-02-04T15:26:36.220Z,10.95
2024-02-04T15:29:05.075Z,11.55
2024-02-04T15:31:35.012Z,19.00
2024-02-04T15:34:05.582Z,15.13
2024-02-04T15:36:34.149Z,18.30
2024-02-04T15:39:04.256Z,18.15
2024-02-04T15:41:31.667Z,13.25
2024-02-04T15:43:58.826Z,18.02
2024-02-04T15:46:26.262Z,14.38
2024-02-04T15:48:54.763Z,10.52
2024-02-04T15:51:22.337Z,10.38
2024-02-04T15:53:49.851Z,16.50
2024-02-04T15:56:21.720Z,29.75
2024-02-04T15:58:50.341Z,40.42
2024-02-04T16:01:18.545Z,17.75
2024-02-04T16:03:46.221Z,15.95
2024-02-04T16:06:14.197Z,16.75
2024-02-04T16:08:44.411Z,31.27
2024-02-04T16:11:18.129Z,22.40
2024-02-04T16:13:48.587Z,20.38
2024-02-04T16:16:21.008Z,20.05
2024-02-04T16:18:49.078Z,17.15
2024-02-04T16:21:16.384Z,17.52
2024-02-04T16:23:43.973Z,19.50
2024-02-04T16:26:11.467Z,17.48
2024-02-04T16:28:40.366Z,15.10
2024-02-04T16:31:08.953Z,14.73
2024-02-04T16:33:36.917Z,15.55
2024-02-04T16:36:06.681Z,11.60
2024-02-04T16:38:35.500Z,15.93
2024-02-04T16:41:02.554Z,15.40
2024-02-04T16:43:29.856Z,20.13
2024-02-04T16:45:57.243Z,13.80
2024-02-04T16:48:24.651Z,20.58
2024-02-04T16:50:51.838Z,16.40
2024-02-04T16:53:21.437Z,19.05
2024-02-04T16:55:48.779Z,16.85
2024-02-04T16:58:15.954Z,30.13
2024-02-04T17:00:45.414Z,16.35
2024-02-04T17:03:13.158Z,13.13
2024-02-04T17:05:50.970Z,23.70
2024-02-04T17:08:24.724Z,21.10
2024-02-04T17:10:53.297Z,17.73
2024-02-04T17:13:21.116Z,14.48
2024-02-04T17:15:49.465Z,19.35
2024-02-04T17:18:28.427Z,12.15
2024-02-04T17:20:56.470Z,14.38
2024-02-04T17:23:27.301Z,13.80
2024-02-04T17:26:02.382Z,16.25
2024-02-04T17:28:30.134Z,16.30
2024-02-04T17:30:57.692Z,17.48
2024-02-04T17:33:25.337Z,25.95
2024-02-04T17:35:52.807Z,16.20
2024-02-04T17:38:20.229Z,15.65
2024-02-04T17:40:47.616Z,24.63
2024-02-04T17:43:15.086Z,17.05
2024-02-04T17:45:42.431Z,18.25
2024-02-04T17:48:10.554Z,19.00
2024-02-04T17:50:37.694Z,20.80
2024-02-04T17:53:07.913Z,15.60
2024-02-04T17:55:37.077Z,19.13
2024-02-04T17:58:04.941Z,27.83
2024-02-04T18:00:34.529Z,24.98
2024-02-04T18:03:02.274Z,19.40
2024-02-04T18:05:29.483Z,27.60
2024-02-04T18:07:56.708Z,18.27
2024-02-04T18:10:23.948Z,27.73
2024-02-04T18:12:51.288Z,21.10
2024-02-04T18:15:18.731Z,31.27
2024-02-04T18:17:46.033Z,17.17
2024-02-04T18:20:13.767Z,24.25
2024-02-04T21:47:01.204Z,16.90
2024-02-04T21:49:28.319Z,13.82
2024-02-04T21:51:55.455Z,12.35
2024-02-04T21:54:24.270Z,15.48
2024-02-04T21:56:52.812Z,15.70
2024-02-04T21:59:20.643Z,12.95
2024-02-04T22:01:48.023Z,14.90
2024-02-04T22:04:16.797Z,16.38
2024-02-04T22:06:44.001Z,8.75
2024-02-04T22:09:14.472Z,16.27
2024-02-04T22:11:44.799Z,9.50
2024-02-04T22:14:12.530Z,13.35
2024-02-04T22:16:43.609Z,13.98
2024-02-04T22:19:10.908Z,16.55
2024-02-04T22:21:38.403Z,10.68
2024-02-04T22:24:06.130Z,16.27
2024-02-04T22:26:33.777Z,16.20
2024-02-04T22:29:00.858Z,16.20
2024-02-04T22:31:28.097Z,21.83
2024-02-04T22:33:55.972Z,22.77
2024-02-04T22:36:29.125Z,26.80
2024-02-04T22:41:24.056Z,16.48
2024-02-04T22:43:52.188Z,18.67
2024-02-04T22:46:20.331Z,19.73
2024-02-04T22:48:47.615Z,18.17
2024-02-04T22:51:15.397Z,19.27
2024-02-04T22:53:42.565Z,17.30
2024-02-04T22:56:10.142Z,15.85
2024-02-04T22:58:37.501Z,15.27
2024-02-04T23:01:05.992Z,22.42
2024-02-04T23:03:33.635Z,18.00
2024-02-04T23:06:00.744Z,23.35
2024-02-04T23:08:27.937Z,17.27
2024-02-04T23:10:55.145Z,18.40
2024-02-04T23:13:22.357Z,17.23
2024-02-04T23:15:49.753Z,27.55
2024-02-04T23:18:17.239Z,22.45
2024-02-04T23:20:44.826Z,20.55
2024-02-04T23:23:11.956Z,13.57
2024-02-04T23:25:39.037Z,27.75
2024-02-04T23:28:06.376Z,19.13
2024-02-04T23:30:33.719Z,13.15
2024-02-04T23:33:00.860Z,23.30
2024-02-04T23:35:28.935Z,19.02
2024-02-04T23:37:56.552Z,16.88
2024-02-04T23:40:23.850Z,27.52
2024-02-04T23:42:51.339Z,22.75
2024-02-04T23:45:18.798Z,16.48
2024-02-04T23:47:46.125Z,18.77
2024-02-04T23:50:13.501Z,19.90
2024-02-04T23:52:41.204Z,24.55
2024-02-04T23:55:10.752Z,27.48
2024-02-04T23:57:38.324Z,14.25
